createdAt,value
2018-11-11T00:01:44.885Z,53.37
2018-11-11T00:04:12.548Z,53.72
2018-11-11T00:06:40.400Z,53.88
2018-11-11T00:09:09.049Z,53.56
2018-11-11T00:11:36.011Z,53.10
2018-11-11T00:14:02.847Z,53.12
2018-11-11T00:16:29.724Z,53.04
2018-11-11T00:18:57.139Z,53.25
2018-11-11T00:21:24.957Z,52.02
2018-11-11T00:23:52.659Z,51.60
2018-11-11T00:26:20.405Z,51.48
2018-11-11T00:28:48.295Z,52.01
2018-11-11T00:31:15.235Z,51.56
2018-11-11T00:33:42.567Z,51.49
2018-11-11T00:36:10.715Z,51.51
2018-11-11T00:38:40.208Z,52.41
2018-11-11T00:41:07.186Z,51.42
2018-11-11T00:43:34.943Z,51.69
2018-11-11T00:46:02.992Z,51.95
2018-11-11T00:48:29.822Z,51.42
2018-11-11T00:50:56.832Z,51.63
2018-11-11T00:53:24.657Z,51.59
2018-11-11T00:55:51.511Z,51.51
2018-11-11T00:58:18.369Z,51.56
2018-11-11T01:00:45.213Z,51.35
2018-11-11T01:03:13.965Z,51.86
2018-11-11T01:05:40.813Z,51.79
2018-11-11T01:08:08.487Z,51.80
2018-11-11T01:10:36.304Z,51.84
2018-11-11T01:13:04.671Z,51.79
2018-11-11T01:15:31.511Z,52.38
2018-11-11T01:17:58.333Z,52.44
2018-11-11T01:20:25.148Z,52.45
2018-11-11T01:22:51.983Z,53.28
2018-11-11T01:25:18.798Z,52.12
2018-11-11T01:27:45.615Z,51.73
2018-11-11T01:30:13.746Z,52.23
2018-11-11T01:32:41.564Z,51.74
2018-11-11T01:35:11.134Z,51.52
2018-11-11T01:37:39.059Z,52.32
2018-11-11T01:40:07.146Z,51.48
2018-11-11T01:42:35.022Z,51.84
2018-11-11T01:45:01.867Z,52.25
2018-11-11T01:47:28.777Z,51.89
2018-11-11T01:49:56.466Z,51.53
2018-11-11T01:52:24.247Z,51.58
2018-11-11T01:54:52.029Z,52.04
2018-11-11T01:57:18.941Z,51.71
2018-11-11T01:59:46.541Z,51.64
2018-11-11T02:02:13.989Z,51.58
2018-11-11T02:04:41.724Z,51.44
2018-11-11T02:07:08.549Z,52.30
2018-11-11T02:09:35.494Z,51.66
2018-11-11T02:12:02.300Z,51.46
2018-11-11T02:14:29.142Z,51.83
2018-11-11T02:16:56.801Z,51.49
2018-11-11T02:19:23.666Z,51.46
2018-11-11T02:21:50.485Z,51.49
2018-11-11T02:24:17.308Z,51.35
2018-11-11T02:26:44.910Z,51.48
2018-11-11T02:29:11.732Z,51.52
2018-11-11T02:31:38.563Z,51.71
2018-11-11T02:34:05.379Z,51.31
2018-11-11T02:36:33.029Z,51.52
2018-11-11T02:38:59.863Z,51.62
2018-11-11T02:41:26.684Z,51.45
2018-11-11T02:43:54.454Z,51.44
2018-11-11T02:46:22.349Z,51.55
2018-11-11T02:48:50.128Z,51.79
2018-11-11T02:51:17.922Z,51.66
2018-11-11T02:53:46.992Z,51.69
2018-11-11T02:56:20.783Z,51.60
2018-11-11T02:58:47.612Z,51.26
2018-11-11T03:01:15.342Z,51.64
2018-11-11T03:03:42.145Z,51.38
2018-11-11T03:06:09.786Z,51.53
2018-11-11T03:08:37.550Z,51.71
2018-11-11T03:11:05.234Z,52.07
2018-11-11T03:13:33.104Z,51.92
2018-11-11T03:16:00.743Z,51.30
2018-11-11T03:18:28.537Z,51.70
2018-11-11T03:20:56.176Z,51.92
2018-11-11T03:23:23.952Z,52.70
2018-11-11T03:25:51.760Z,51.76
2018-11-11T03:28:19.546Z,51.32
2018-11-11T03:30:47.283Z,52.02
2018-11-11T03:33:14.998Z,51.53
2018-11-11T03:35:42.675Z,51.48
2018-11-11T03:38:10.313Z,51.61
2018-11-11T03:40:38.130Z,51.45
2018-11-11T03:43:05.886Z,51.74
2018-11-11T03:45:32.777Z,51.14
2018-11-11T03:47:59.604Z,51.50
2018-11-11T03:50:26.438Z,51.20
2018-11-11T03:52:53.358Z,51.40
2018-11-11T03:55:20.173Z,51.60
2018-11-11T03:57:46.971Z,51.79
2018-11-11T04:00:16.303Z,51.53
2018-11-11T04:02:44.008Z,52.09
2018-11-11T04:05:12.184Z,51.29
2018-11-11T04:07:40.139Z,51.61
2018-11-11T04:10:07.953Z,51.50
2018-11-11T04:12:34.829Z,51.45
2018-11-11T04:15:02.517Z,51.16
2018-11-11T04:17:29.366Z,51.74
2018-11-11T04:19:57.032Z,51.76
2018-11-11T04:22:24.638Z,52.81
2018-11-11T04:24:52.423Z,51.29
2018-11-11T04:27:20.036Z,51.97
2018-11-11T04:29:46.866Z,51.40
2018-11-11T04:32:15.712Z,51.80
2018-11-11T04:34:43.766Z,51.44
2018-11-11T04:37:11.495Z,51.46
2018-11-11T04:39:38.724Z,51.77
2018-11-11T04:42:05.556Z,51.30
2018-11-11T04:44:40.077Z,51.17
2018-11-11T04:47:06.859Z,51.07
2018-11-11T04:49:33.803Z,51.31
2018-11-11T04:52:01.433Z,51.46
2018-11-11T04:54:28.324Z,51.10
2018-11-11T04:56:55.157Z,51.13
2018-11-11T04:59:22.894Z,51.29
2018-11-11T05:01:49.723Z,51.73
2018-11-11T05:04:17.532Z,51.48
2018-11-11T05:06:45.072Z,52.28
2018-11-11T05:09:13.594Z,52.41
2018-11-11T05:11:40.721Z,51.99
2018-11-11T05:14:07.753Z,52.66
2018-11-11T05:16:34.666Z,51.99
2018-11-11T05:19:01.507Z,52.94
2018-11-11T05:21:29.249Z,52.38
2018-11-11T05:23:57.027Z,52.10
2018-11-11T05:26:24.056Z,52.16
2018-11-11T05:28:51.894Z,52.06
2018-11-11T05:31:19.669Z,51.53
2018-11-11T05:33:46.500Z,52.03
2018-11-11T05:36:15.341Z,52.70
2018-11-11T05:38:42.149Z,51.63
2018-11-11T05:41:09.809Z,52.10
2018-11-11T05:43:36.642Z,51.16
2018-11-11T05:46:03.573Z,51.17
2018-11-11T05:48:31.237Z,51.92
2018-11-11T05:50:58.899Z,51.66
2018-11-11T05:53:26.637Z,52.21
2018-11-11T05:55:53.475Z,50.88
2018-11-11T05:58:21.289Z,52.07
2018-11-11T06:00:49.094Z,51.04
2018-11-11T06:03:15.904Z,51.30
2018-11-11T06:05:42.725Z,50.98
2018-11-11T06:08:10.412Z,51.28
2018-11-11T06:10:38.192Z,51.13
2018-11-11T06:13:05.067Z,51.41
2018-11-11T06:15:31.999Z,51.07
2018-11-11T06:17:58.825Z,51.56
2018-11-11T06:20:26.604Z,50.98
2018-11-11T06:22:54.273Z,51.04
2018-11-11T06:25:21.908Z,51.30
2018-11-11T06:27:49.645Z,51.62
2018-11-11T06:30:16.508Z,52.13
2018-11-11T06:32:44.264Z,50.87
2018-11-11T06:35:11.077Z,50.81
2018-11-11T06:37:38.991Z,51.15
2018-11-11T06:40:07.539Z,51.19
2018-11-11T06:42:35.206Z,50.97
2018-11-11T06:45:03.127Z,51.27
2018-11-11T06:47:30.797Z,51.20
2018-11-11T06:49:58.549Z,51.32
2018-11-11T06:52:25.400Z,51.51
2018-11-11T06:54:52.420Z,51.03
2018-11-11T06:57:20.250Z,51.27
2018-11-11T06:59:47.068Z,51.10
2018-11-11T07:02:15.933Z,51.01
2018-11-11T07:04:42.760Z,51.85
2018-11-11T07:07:10.558Z,51.47
2018-11-11T07:09:38.423Z,51.28
2018-11-11T07:12:06.178Z,51.61
2018-11-11T07:14:33.009Z,51.53
2018-11-11T07:17:00.832Z,51.10
2018-11-11T07:19:28.645Z,51.53
2018-11-11T07:21:55.482Z,51.30
2018-11-11T07:24:23.333Z,52.02
2018-11-11T07:26:50.339Z,51.02
2018-11-11T07:29:17.358Z,51.51
2018-11-11T07:31:45.329Z,51.44
2018-11-11T07:34:12.182Z,51.71
2018-11-11T07:36:39.073Z,51.25
2018-11-11T07:39:07.930Z,51.14
2018-11-11T07:41:34.763Z,51.39
2018-11-11T07:44:02.413Z,51.20
2018-11-11T07:46:29.246Z,51.31
2018-11-11T07:48:56.064Z,51.63
2018-11-11T07:51:22.910Z,52.00
2018-11-11T07:53:49.727Z,51.30
2018-11-11T07:56:16.556Z,51.99
2018-11-11T07:58:44.367Z,51.40
2018-11-11T08:01:11.150Z,51.53
2018-11-11T08:03:37.994Z,51.51
2018-11-11T08:06:04.815Z,51.44
2018-11-11T08:08:31.621Z,51.53
2018-11-11T08:11:04.223Z,51.87
2018-11-11T08:13:31.045Z,52.02
2018-11-11T08:15:57.969Z,51.36
2018-11-11T08:18:24.808Z,51.07
2018-11-11T08:20:51.669Z,51.04
2018-11-11T08:23:18.540Z,51.01
2018-11-11T08:25:45.424Z,51.09
2018-11-11T08:28:12.263Z,51.69
2018-11-11T08:30:40.154Z,52.15
2018-11-11T08:33:07.023Z,51.31
2018-11-11T08:35:33.899Z,51.71
2018-11-11T08:38:00.749Z,51.20
2018-11-11T08:40:27.649Z,51.84
2018-11-11T08:42:54.494Z,51.32
2018-11-11T08:45:21.312Z,51.30
2018-11-11T08:47:48.264Z,51.80
2018-11-11T08:50:15.096Z,51.36
2018-11-11T08:52:42.210Z,51.68
2018-11-11T08:55:09.411Z,51.86
2018-11-11T08:57:37.134Z,51.63
2018-11-11T09:00:06.691Z,51.58
2018-11-11T09:02:34.469Z,51.46
2018-11-11T09:05:01.379Z,51.57
2018-11-11T09:07:28.247Z,51.71
2018-11-11T09:09:55.974Z,52.05
2018-11-11T09:12:23.727Z,51.51
2018-11-11T09:14:51.411Z,51.83
2018-11-11T09:17:18.375Z,51.79
2018-11-11T09:19:45.180Z,51.65
2018-11-11T09:22:12.814Z,51.79
2018-11-11T09:24:40.775Z,51.57
2018-11-11T09:27:08.580Z,52.02
2018-11-11T09:29:36.059Z,52.07
2018-11-11T09:32:03.748Z,52.18
2018-11-11T09:34:30.736Z,52.02
2018-11-11T09:36:57.599Z,52.18
2018-11-11T09:39:24.406Z,52.04
2018-11-11T09:41:51.299Z,52.67
2018-11-11T09:44:19.036Z,52.43
2018-11-11T09:46:48.195Z,52.12
2018-11-11T09:49:15.875Z,52.05
2018-11-11T09:51:44.810Z,52.10
2018-11-11T09:54:13.594Z,51.92
2018-11-11T09:56:41.280Z,52.17
2018-11-11T09:59:18.204Z,52.35
2018-11-11T10:01:50.213Z,52.36
2018-11-11T10:05:22.228Z,52.35
2018-11-11T10:07:58.596Z,52.52
2018-11-11T10:11:01.071Z,52.64
2018-11-11T10:13:33.322Z,52.14
2018-11-11T10:16:38.848Z,52.63
2018-11-11T10:19:12.738Z,53.31
2018-11-11T10:21:44.319Z,53.18
2018-11-11T10:24:20.722Z,53.88
2018-11-11T10:26:59.779Z,53.43
2018-11-11T10:29:32.218Z,53.62
2018-11-11T10:32:06.917Z,53.67
2018-11-11T10:34:45.856Z,54.68
2018-11-11T10:37:16.701Z,53.95
2018-11-11T10:39:48.284Z,54.33
2018-11-11T10:42:22.853Z,55.03
2018-11-11T10:44:55.101Z,53.97
2018-11-11T10:47:35.535Z,54.79
2018-11-11T10:50:05.130Z,54.30
2018-11-11T10:52:32.988Z,53.80
2018-11-11T10:55:00.678Z,54.31
2018-11-11T10:57:27.551Z,54.76
2018-11-11T10:59:54.384Z,54.57
2018-11-11T11:02:27.172Z,54.31
2018-11-11T11:04:59.764Z,55.10
2018-11-11T11:07:26.630Z,53.90
2018-11-11T11:09:53.479Z,55.17
2018-11-11T11:12:20.310Z,53.98
2018-11-11T11:14:47.132Z,54.81
2018-11-11T11:17:14.825Z,54.99
2018-11-11T11:19:41.622Z,55.38
2018-11-11T11:22:08.596Z,55.21
2018-11-11T11:24:35.446Z,54.64
2018-11-11T11:27:02.329Z,55.33
2018-11-11T11:29:29.164Z,55.71
2018-11-11T11:31:56.033Z,54.48
2018-11-11T11:34:22.832Z,54.90
2018-11-11T11:36:50.499Z,54.97
2018-11-11T11:39:18.380Z,54.62
2018-11-11T11:41:46.049Z,54.55
2018-11-11T11:44:14.866Z,54.29
2018-11-11T11:46:44.045Z,55.03
2018-11-11T11:49:11.766Z,54.94
2018-11-11T11:51:39.445Z,54.71
2018-11-11T11:54:07.165Z,55.77
2018-11-11T11:56:34.935Z,55.28
2018-11-11T11:59:02.823Z,55.08
2018-11-11T12:01:29.646Z,55.13
2018-11-11T12:03:56.472Z,55.23
2018-11-11T12:06:24.158Z,55.00
2018-11-11T12:08:52.006Z,55.67
2018-11-11T12:11:18.812Z,55.09
2018-11-11T12:13:46.637Z,55.33
2018-11-11T12:16:14.547Z,55.26
2018-11-11T12:18:42.490Z,55.46
2018-11-11T12:21:09.382Z,55.80
2018-11-11T12:23:37.257Z,55.27
2018-11-11T12:26:04.137Z,55.46
2018-11-11T12:28:31.982Z,56.39
2018-11-11T12:30:58.915Z,56.41
2018-11-11T12:33:26.707Z,55.80
2018-11-11T12:35:54.411Z,56.10
2018-11-11T12:38:22.042Z,56.18
2018-11-11T12:40:48.903Z,56.62
2018-11-11T12:43:16.580Z,56.63
2018-11-11T12:45:45.266Z,56.29
2018-11-11T12:48:13.871Z,56.30
2018-11-11T12:50:40.732Z,56.46
2018-11-11T12:53:07.949Z,56.00
2018-11-11T12:55:35.783Z,56.77
2018-11-11T12:58:03.700Z,56.64
2018-11-11T13:00:31.626Z,56.48
2018-11-11T13:02:59.488Z,56.41
2018-11-11T13:05:27.341Z,55.64
2018-11-11T13:07:54.411Z,56.00
2018-11-11T13:10:22.274Z,55.92
2018-11-11T13:12:50.386Z,55.05
2018-11-11T13:15:18.196Z,55.14
2018-11-11T13:17:46.052Z,55.42
2018-11-11T13:20:14.541Z,55.08
2018-11-11T13:22:42.284Z,56.05
2018-11-11T13:25:11.203Z,55.38
2018-11-11T13:27:38.989Z,55.96
2018-11-11T13:30:07.421Z,56.10
2018-11-11T13:32:34.267Z,55.43
2018-11-11T13:35:01.100Z,55.48
2018-11-11T13:37:27.936Z,55.95
2018-11-11T13:39:55.713Z,55.57
2018-11-11T13:42:23.521Z,55.64
2018-11-11T13:44:58.256Z,56.13
2018-11-11T13:47:25.875Z,55.73
2018-11-11T13:49:53.700Z,55.65
2018-11-11T13:52:21.439Z,56.17
2018-11-11T13:54:49.236Z,56.05
2018-11-11T13:57:16.976Z,55.99
2018-11-11T13:59:44.655Z,56.26
2018-11-11T14:02:11.493Z,56.06
2018-11-11T14:04:39.208Z,56.26
2018-11-11T14:07:06.051Z,56.07
2018-11-11T14:09:33.891Z,55.73
2018-11-11T14:12:01.627Z,56.37
2018-11-11T14:14:29.485Z,55.61
2018-11-11T14:16:56.410Z,55.79
2018-11-11T14:19:24.429Z,55.82
2018-11-11T14:21:51.148Z,56.31
2018-11-11T14:24:18.982Z,56.44
2018-11-11T14:26:46.047Z,56.08
2018-11-11T14:29:14.320Z,56.10
2018-11-11T14:31:42.037Z,56.23
2018-11-11T14:34:08.934Z,56.46
2018-11-11T14:36:36.913Z,56.10
2018-11-11T14:39:06.673Z,57.06
2018-11-11T14:41:34.361Z,55.94
2018-11-11T14:44:01.204Z,56.52
2018-11-11T14:46:28.889Z,56.43
2018-11-11T14:48:55.808Z,56.03
2018-11-11T14:51:23.694Z,56.05
2018-11-11T14:53:51.480Z,56.42
2018-11-11T14:56:19.358Z,56.11
2018-11-11T14:58:47.308Z,56.21
2018-11-11T15:01:15.038Z,56.14
2018-11-11T15:03:42.869Z,56.11
2018-11-11T15:06:09.727Z,55.92
2018-11-11T15:08:37.507Z,56.25
2018-11-11T15:11:05.125Z,56.14
2018-11-11T15:13:32.003Z,55.99
2018-11-11T15:15:59.758Z,55.94
2018-11-11T15:18:26.625Z,55.85
2018-11-11T15:20:53.645Z,55.95
2018-11-11T15:23:21.304Z,56.15
2018-11-11T15:25:48.160Z,56.12
2018-11-11T15:28:15.937Z,55.75
2018-11-11T15:30:42.873Z,55.92
2018-11-11T15:33:09.715Z,56.17
2018-11-11T15:35:36.617Z,56.05
2018-11-11T15:38:03.923Z,56.51
2018-11-11T15:40:32.060Z,55.76
2018-11-11T15:42:59.282Z,56.14
2018-11-11T15:45:28.101Z,55.75
2018-11-11T15:47:54.918Z,56.33
2018-11-11T15:50:24.569Z,56.23
2018-11-11T15:52:54.629Z,55.75
2018-11-11T15:55:22.624Z,55.71
2018-11-11T15:57:50.382Z,56.64
2018-11-11T16:00:18.613Z,55.64
2018-11-11T16:02:46.337Z,55.95
2018-11-11T16:05:15.657Z,56.33
2018-11-11T16:07:44.246Z,56.08
2018-11-11T16:10:14.389Z,56.07
2018-11-11T16:12:42.149Z,56.26
2018-11-11T16:15:11.340Z,56.18
2018-11-11T16:17:38.256Z,56.35
2018-11-11T16:20:06.950Z,55.98
2018-11-11T16:22:33.874Z,56.29
2018-11-11T16:25:01.645Z,56.03
2018-11-11T16:27:28.556Z,55.62
2018-11-11T16:29:55.405Z,55.79
2018-11-11T16:32:22.267Z,55.80
2018-11-11T16:34:50.117Z,55.62
2018-11-11T16:37:17.895Z,55.35
2018-11-11T16:39:46.515Z,55.64
2018-11-11T16:42:14.955Z,55.86
2018-11-11T16:44:42.747Z,55.31
2018-11-11T16:47:10.451Z,55.54
2018-11-11T16:49:38.258Z,55.24
2018-11-11T16:52:05.951Z,55.51
2018-11-11T16:54:33.821Z,56.03
2018-11-11T16:57:01.666Z,55.85
2018-11-11T16:59:29.441Z,55.47
2018-11-11T17:01:57.166Z,55.82
2018-11-11T17:04:25.008Z,55.62
2018-11-11T17:06:52.829Z,55.62
2018-11-11T17:09:20.406Z,55.70
2018-11-11T17:11:48.043Z,56.33
2018-11-11T17:14:15.784Z,55.82
2018-11-11T17:16:44.664Z,56.03
2018-11-11T17:19:12.510Z,56.13
2018-11-11T17:21:40.522Z,56.46
2018-11-11T17:24:08.216Z,55.98
2018-11-11T17:26:35.111Z,56.15
2018-11-11T17:29:01.992Z,56.16
2018-11-11T17:31:28.893Z,56.33
2018-11-11T17:33:56.614Z,56.23
2018-11-11T17:36:24.350Z,56.31
2018-11-11T17:38:52.164Z,56.86
2018-11-11T17:41:20.052Z,55.46
2018-11-11T17:43:46.849Z,55.71
2018-11-11T17:46:14.710Z,56.77
2018-11-11T17:48:41.608Z,54.96
2018-11-11T17:51:08.558Z,54.86
2018-11-11T17:53:36.204Z,56.18
2018-11-11T17:56:03.086Z,56.40
2018-11-11T17:58:30.015Z,55.87
2018-11-11T18:00:56.953Z,56.15
2018-11-11T18:03:24.718Z,55.40
2018-11-11T18:05:52.572Z,55.82
2018-11-11T18:08:19.425Z,55.75
2018-11-11T18:10:46.340Z,55.34
2018-11-11T18:13:14.201Z,55.21
2018-11-11T18:15:41.070Z,55.49
2018-11-11T18:18:07.909Z,55.58
2018-11-11T18:20:34.891Z,55.00
2018-11-11T18:23:02.490Z,55.00
2018-11-11T18:25:29.465Z,55.03
2018-11-11T18:27:56.784Z,55.28
2018-11-11T18:30:26.443Z,55.33
2018-11-11T18:32:54.296Z,54.91
2018-11-11T18:35:21.371Z,54.99
2018-11-11T18:37:48.214Z,55.18
2018-11-11T18:40:21.436Z,54.97
2018-11-11T18:42:48.604Z,55.51
2018-11-11T18:45:28.087Z,54.86
2018-11-11T18:47:55.580Z,55.16
2018-11-11T18:50:24.121Z,55.16
2018-11-11T18:52:52.699Z,54.97
2018-11-11T18:55:19.733Z,54.85
2018-11-11T18:57:46.827Z,55.37
2018-11-11T19:00:19.120Z,55.18
2018-11-11T19:02:47.032Z,54.87
2018-11-11T19:05:16.804Z,55.28
2018-11-11T19:07:45.283Z,54.85
2018-11-11T19:10:14.528Z,55.31
2018-11-11T19:12:42.409Z,55.36
2018-11-11T19:15:10.564Z,55.17
2018-11-11T19:17:38.548Z,55.17
2018-11-11T19:20:07.337Z,55.69
2018-11-11T19:22:34.179Z,55.03
2018-11-11T19:25:02.078Z,54.95
2018-11-11T19:27:29.082Z,55.38
2018-11-11T19:29:55.934Z,55.20
2018-11-11T19:32:23.806Z,55.79
2018-11-11T19:34:50.718Z,55.11
2018-11-11T19:37:17.601Z,55.74
2018-11-11T19:39:45.207Z,54.93
2018-11-11T19:42:14.116Z,55.09
2018-11-11T19:44:41.005Z,54.72
2018-11-11T19:47:07.953Z,55.72
2018-11-11T19:49:35.737Z,54.67
2018-11-11T19:52:03.604Z,54.87
2018-11-11T19:54:31.407Z,54.69
2018-11-11T19:56:59.296Z,54.92
2018-11-11T19:59:26.212Z,55.28
2018-11-11T20:01:54.009Z,55.46
2018-11-11T20:04:21.868Z,54.78
2018-11-11T20:06:49.297Z,55.26
2018-11-11T20:09:16.185Z,55.46
2018-11-11T20:11:44.044Z,55.18
2018-11-11T20:14:10.976Z,55.37
2018-11-11T20:16:38.319Z,54.49
2018-11-11T20:19:05.348Z,55.73
2018-11-11T20:21:32.352Z,54.64
2018-11-11T20:23:59.322Z,54.77
2018-11-11T20:26:26.527Z,54.56
2018-11-11T20:28:53.470Z,54.51
2018-11-11T20:31:20.373Z,55.18
2018-11-11T20:33:48.243Z,55.46
2018-11-11T20:36:16.035Z,54.77
2018-11-11T20:38:44.765Z,54.72
2018-11-11T20:41:11.639Z,55.98
2018-11-11T20:43:38.532Z,54.68
2018-11-11T20:46:05.598Z,54.14
2018-11-11T20:48:32.539Z,54.54
2018-11-11T20:51:00.340Z,54.29
2018-11-11T20:53:27.203Z,54.48
2018-11-11T20:55:54.076Z,54.64
2018-11-11T20:58:20.962Z,54.41
2018-11-11T21:00:48.655Z,53.74
2018-11-11T21:03:15.514Z,53.92
2018-11-11T21:05:42.363Z,54.14
2018-11-11T21:08:09.354Z,54.43
2018-11-11T21:10:36.393Z,54.12
2018-11-11T21:13:05.297Z,54.47
2018-11-11T21:15:33.087Z,55.40
2018-11-11T21:18:00.022Z,54.03
2018-11-11T21:20:29.088Z,54.28
2018-11-11T21:22:55.913Z,54.11
2018-11-11T21:25:22.805Z,55.21
2018-11-11T21:27:50.557Z,55.41
2018-11-11T21:30:19.530Z,54.00
2018-11-11T21:32:46.728Z,54.21
2018-11-11T21:35:19.781Z,54.08
2018-11-11T21:37:46.682Z,54.25
2018-11-11T21:40:16.420Z,54.33
2018-11-11T21:42:44.279Z,54.18
2018-11-11T21:45:12.574Z,53.84
2018-11-11T21:47:39.668Z,54.22
2018-11-11T21:50:07.243Z,54.33
2018-11-11T21:52:34.161Z,53.79
2018-11-11T21:55:01.126Z,54.31
2018-11-11T21:57:28.016Z,54.33
2018-11-11T21:59:55.763Z,54.73
2018-11-11T22:02:22.656Z,54.12
2018-11-11T22:04:49.515Z,53.94
2018-11-11T22:07:16.358Z,54.51
2018-11-11T22:09:45.076Z,54.16
2018-11-11T22:12:13.619Z,54.17
2018-11-11T22:14:40.463Z,54.36
2018-11-11T22:17:07.484Z,54.70
2018-11-11T22:19:34.337Z,54.25
2018-11-11T22:22:01.345Z,54.28
2018-11-11T22:24:28.280Z,55.79
2018-11-11T22:26:55.271Z,53.70
2018-11-11T22:29:22.081Z,54.15
2018-11-11T22:31:49.303Z,54.28
2018-11-11T22:34:16.187Z,54.41
2018-11-11T22:36:43.999Z,54.71
2018-11-11T22:39:11.613Z,54.59
2018-11-11T22:41:38.491Z,54.05
2018-11-11T22:44:07.182Z,54.49
2018-11-11T22:46:34.046Z,54.08
2018-11-11T22:49:01.033Z,54.41
2018-11-11T22:51:27.901Z,54.64
2018-11-11T22:53:54.942Z,54.40
2018-11-11T22:56:21.803Z,54.55
2018-11-11T22:58:49.648Z,53.90
2018-11-11T23:01:18.642Z,54.36
2018-11-11T23:03:46.502Z,54.60
2018-11-11T23:06:14.217Z,54.50
2018-11-11T23:08:41.101Z,54.23
2018-11-11T23:11:07.939Z,54.02
2018-11-11T23:13:34.785Z,53.92
2018-11-11T23:16:01.678Z,54.03
2018-11-11T23:18:29.372Z,54.46
2018-11-11T23:20:56.189Z,54.22
2018-11-11T23:23:23.035Z,54.68
2018-11-11T23:25:49.888Z,54.49
2018-11-11T23:28:17.688Z,54.06
2018-11-11T23:30:45.448Z,56.31
2018-11-11T23:33:12.294Z,54.51
2018-11-11T23:35:39.148Z,54.41
2018-11-11T23:38:05.964Z,54.71
2018-11-11T23:40:33.635Z,55.03
2018-11-11T23:43:00.496Z,54.34
2018-11-11T23:45:28.310Z,54.25
2018-11-11T23:47:56.166Z,54.78
2018-11-11T23:50:22.986Z,54.91
2018-11-11T23:52:49.830Z,55.09
2018-11-11T23:55:17.735Z,54.52
2018-11-11T23:57:44.865Z,54.93
